sensor_id;sensor_type;location;lat;lon;timestamp;P1;durP1;ratioP1;P2;durP2;ratioP2
6422;SDS011;3244;42.708;23.288;2023-07-29T00:00:10;3.72;;;3.53;;
6422;SDS011;3244;42.708;23.288;2023-07-29T00:02:37;4.20;;;3.80;;
6422;SDS011;3244;42.708;23.288;2023-07-29T00:05:04;4.93;;;3.50;;
6422;SDS011;3244;42.708;23.288;2023-07-29T00:07:30;3.63;;;3.28;;
6422;SDS011;3244;42.708;23.288;2023-07-29T00:09:57;4.05;;;3.03;;
6422;SDS011;3244;42.708;23.288;2023-07-29T00:12:23;7.00;;;3.80;;
6422;SDS011;3244;42.708;23.288;2023-07-29T00:14:51;4.43;;;3.88;;
6422;SDS011;3244;42.708;23.288;2023-07-29T00:17:18;8.65;;;4.30;;
6422;SDS011;3244;42.708;23.288;2023-07-29T00:19:45;7.10;;;3.92;;
6422;SDS011;3244;42.708;23.288;2023-07-29T00:22:11;4.95;;;4.65;;
6422;SDS011;3244;42.708;23.288;2023-07-29T00:24:39;4.35;;;4.03;;
6422;SDS011;3244;42.708;23.288;2023-07-29T00:27:06;10.63;;;4.38;;
6422;SDS011;3244;42.708;23.288;2023-07-29T00:29:32;9.52;;;4.30;;
6422;SDS011;3244;42.708;23.288;2023-07-29T00:32:00;6.38;;;4.20;;
6422;SDS011;3244;42.708;23.288;2023-07-29T00:34:26;9.35;;;4.38;;
6422;SDS011;3244;42.708;23.288;2023-07-29T00:36:53;4.00;;;3.50;;
6422;SDS011;3244;42.708;23.288;2023-07-29T00:39:19;3.70;;;3.40;;
6422;SDS011;3244;42.708;23.288;2023-07-29T00:41:46;6.80;;;4.43;;
6422;SDS011;3244;42.708;23.288;2023-07-29T00:44:12;5.18;;;3.70;;
6422;SDS011;3244;42.708;23.288;2023-07-29T00:46:38;4.15;;;3.75;;
6422;SDS011;3244;42.708;23.288;2023-07-29T00:49:07;3.88;;;3.45;;
6422;SDS011;3244;42.708;23.288;2023-07-29T00:51:33;3.65;;;3.45;;
6422;SDS011;3244;42.708;23.288;2023-07-29T00:54:00;3.95;;;3.75;;
6422;SDS011;3244;42.708;23.288;2023-07-29T00:56:26;4.13;;;3.85;;
6422;SDS011;3244;42.708;23.288;2023-07-29T00:58:53;4.57;;;4.05;;
6422;SDS011;3244;42.708;23.288;2023-07-29T01:01:23;3.90;;;3.70;;
6422;SDS011;3244;42.708;23.288;2023-07-29T01:03:50;4.03;;;3.70;;
6422;SDS011;3244;42.708;23.288;2023-07-29T01:06:18;5.13;;;3.55;;
6422;SDS011;3244;42.708;23.288;2023-07-29T01:08:50;4.53;;;3.50;;
6422;SDS011;3244;42.708;23.288;2023-07-29T01:11:22;7.25;;;4.30;;
6422;SDS011;3244;42.708;23.288;2023-07-29T01:13:53;4.80;;;4.35;;
6422;SDS011;3244;42.708;23.288;2023-07-29T01:16:23;7.25;;;5.28;;
6422;SDS011;3244;42.708;23.288;2023-07-29T01:18:51;7.70;;;4.60;;
6422;SDS011;3244;42.708;23.288;2023-07-29T01:21:20;4.63;;;4.18;;
6422;SDS011;3244;42.708;23.288;2023-07-29T01:23:50;4.88;;;4.47;;
6422;SDS011;3244;42.708;23.288;2023-07-29T01:26:18;4.57;;;4.10;;
6422;SDS011;3244;42.708;23.288;2023-07-29T01:28:44;12.68;;;3.85;;
6422;SDS011;3244;42.708;23.288;2023-07-29T01:31:12;4.18;;;3.88;;
6422;SDS011;3244;42.708;23.288;2023-07-29T01:33:40;4.28;;;3.88;;
6422;SDS011;3244;42.708;23.288;2023-07-29T01:36:11;3.83;;;3.63;;
6422;SDS011;3244;42.708;23.288;2023-07-29T01:38:40;3.90;;;3.47;;
6422;SDS011;3244;42.708;23.288;2023-07-29T01:41:08;4.63;;;3.83;;
6422;SDS011;3244;42.708;23.288;2023-07-29T01:43:35;10.15;;;3.40;;
6422;SDS011;3244;42.708;23.288;2023-07-29T01:46:06;3.92;;;3.63;;
6422;SDS011;3244;42.708;23.288;2023-07-29T01:48:33;5.43;;;3.80;;
6422;SDS011;3244;42.708;23.288;2023-07-29T01:51:00;3.70;;;3.30;;
6422;SDS011;3244;42.708;23.288;2023-07-29T01:53:26;6.30;;;3.55;;
6422;SDS011;3244;42.708;23.288;2023-07-29T01:55:53;3.75;;;3.45;;
6422;SDS011;3244;42.708;23.288;2023-07-29T01:58:20;4.65;;;3.85;;
6422;SDS011;3244;42.708;23.288;2023-07-29T02:00:47;3.90;;;3.70;;
6422;SDS011;3244;42.708;23.288;2023-07-29T02:03:13;4.72;;;3.88;;
6422;SDS011;3244;42.708;23.288;2023-07-29T02:05:40;5.00;;;3.92;;
6422;SDS011;3244;42.708;23.288;2023-07-29T02:08:07;3.85;;;3.65;;
6422;SDS011;3244;42.708;23.288;2023-07-29T02:10:33;4.10;;;3.80;;
6422;SDS011;3244;42.708;23.288;2023-07-29T02:13:00;4.43;;;4.03;;
6422;SDS011;3244;42.708;23.288;2023-07-29T02:15:28;4.40;;;3.38;;
6422;SDS011;3244;42.708;23.288;2023-07-29T02:17:54;6.68;;;3.65;;
6422;SDS011;3244;42.708;23.288;2023-07-29T02:20:20;3.90;;;3.60;;
6422;SDS011;3244;42.708;23.288;2023-07-29T02:22:47;5.00;;;3.47;;
6422;SDS011;3244;42.708;23.288;2023-07-29T02:25:14;3.10;;;2.83;;
6422;SDS011;3244;42.708;23.288;2023-07-29T02:27:40;3.90;;;3.60;;
6422;SDS011;3244;42.708;23.288;2023-07-29T02:30:07;4.07;;;3.65;;
6422;SDS011;3244;42.708;23.288;2023-07-29T02:32:36;4.03;;;3.60;;
6422;SDS011;3244;42.708;23.288;2023-07-29T02:35:02;3.40;;;3.10;;
6422;SDS011;3244;42.708;23.288;2023-07-29T02:37:29;13.02;;;3.72;;
6422;SDS011;3244;42.708;23.288;2023-07-29T02:39:56;3.33;;;3.13;;
6422;SDS011;3244;42.708;23.288;2023-07-29T02:42:22;5.70;;;3.08;;
6422;SDS011;3244;42.708;23.288;2023-07-29T02:44:49;3.67;;;3.45;;
6422;SDS011;3244;42.708;23.288;2023-07-29T02:47:15;6.40;;;3.17;;
6422;SDS011;3244;42.708;23.288;2023-07-29T02:49:43;4.60;;;3.72;;
6422;SDS011;3244;42.708;23.288;2023-07-29T02:52:10;4.50;;;3.65;;
6422;SDS011;3244;42.708;23.288;2023-07-29T02:54:36;3.85;;;3.65;;
6422;SDS011;3244;42.708;23.288;2023-07-29T02:57:03;4.10;;;3.70;;
6422;SDS011;3244;42.708;23.288;2023-07-29T02:59:29;3.72;;;3.42;;
6422;SDS011;3244;42.708;23.288;2023-07-29T03:01:56;3.72;;;3.47;;
6422;SDS011;3244;42.708;23.288;2023-07-29T03:04:22;3.17;;;3.00;;
6422;SDS011;3244;42.708;23.288;2023-07-29T03:06:50;3.38;;;3.17;;
6422;SDS011;3244;42.708;23.288;2023-07-29T03:09:17;3.50;;;3.20;;
6422;SDS011;3244;42.708;23.288;2023-07-29T03:11:44;8.35;;;3.47;;
6422;SDS011;3244;42.708;23.288;2023-07-29T03:14:11;3.08;;;2.75;;
6422;SDS011;3244;42.708;23.288;2023-07-29T03:16:37;6.50;;;3.60;;
6422;SDS011;3244;42.708;23.288;2023-07-29T03:19:04;3.17;;;2.95;;
6422;SDS011;3244;42.708;23.288;2023-07-29T03:21:31;5.18;;;3.92;;
6422;SDS011;3244;42.708;23.288;2023-07-29T03:23:59;3.60;;;2.90;;
6422;SDS011;3244;42.708;23.288;2023-07-29T03:26:25;3.38;;;3.13;;
6422;SDS011;3244;42.708;23.288;2023-07-29T03:28:52;11.95;;;4.43;;
6422;SDS011;3244;42.708;23.288;2023-07-29T03:31:18;3.58;;;3.35;;
6422;SDS011;3244;42.708;23.288;2023-07-29T03:33:45;7.68;;;4.13;;
6422;SDS011;3244;42.708;23.288;2023-07-29T03:36:11;4.13;;;3.70;;
6422;SDS011;3244;42.708;23.288;2023-07-29T03:38:37;5.45;;;3.80;;
6422;SDS011;3244;42.708;23.288;2023-07-29T03:41:06;3.65;;;3.40;;
6422;SDS011;3244;42.708;23.288;2023-07-29T03:43:33;4.05;;;3.40;;
6422;SDS011;3244;42.708;23.288;2023-07-29T03:46:00;3.45;;;3.25;;
6422;SDS011;3244;42.708;23.288;2023-07-29T03:48:26;5.72;;;3.60;;
6422;SDS011;3244;42.708;23.288;2023-07-29T03:50:53;3.45;;;3.25;;
6422;SDS011;3244;42.708;23.288;2023-07-29T03:53:19;3.72;;;3.42;;
6422;SDS011;3244;42.708;23.288;2023-07-29T03:55:46;4.10;;;3.75;;
6422;SDS011;3244;42.708;23.288;2023-07-29T03:58:16;4.28;;;3.30;;
6422;SDS011;3244;42.708;23.288;2023-07-29T04:00:42;4.53;;;3.72;;
6422;SDS011;3244;42.708;23.288;2023-07-29T04:03:09;5.78;;;3.30;;
6422;SDS011;3244;42.708;23.288;2023-07-29T04:05:36;4.55;;;3.85;;
6422;SDS011;3244;42.708;23.288;2023-07-29T04:08:03;4.00;;;3.60;;
6422;SDS011;3244;42.708;23.288;2023-07-29T04:10:29;5.72;;;3.50;;
6422;SDS011;3244;42.708;23.288;2023-07-29T04:12:57;4.75;;;4.45;;
6422;SDS011;3244;42.708;23.288;2023-07-29T04:15:24;3.80;;;3.53;;
6422;SDS011;3244;42.708;23.288;2023-07-29T04:17:51;3.97;;;3.50;;
6422;SDS011;3244;42.708;23.288;2023-07-29T04:20:17;3.65;;;3.42;;
6422;SDS011;3244;42.708;23.288;2023-07-29T04:22:44;3.08;;;2.88;;
6422;SDS011;3244;42.708;23.288;2023-07-29T04:25:10;3.95;;;3.65;;
6422;SDS011;3244;42.708;23.288;2023-07-29T04:27:38;3.20;;;2.80;;
6422;SDS011;3244;42.708;23.288;2023-07-29T04:30:05;8.15;;;2.97;;
6422;SDS011;3244;42.708;23.288;2023-07-29T04:32:33;3.78;;;3.47;;
6422;SDS011;3244;42.708;23.288;2023-07-29T04:34:59;4.75;;;3.03;;
6422;SDS011;3244;42.708;23.288;2023-07-29T04:37:26;4.43;;;4.03;;
6422;SDS011;3244;42.708;23.288;2023-07-29T04:39:52;4.90;;;4.40;;
6422;SDS011;3244;42.708;23.288;2023-07-29T04:42:19;4.57;;;4.18;;
6422;SDS011;3244;42.708;23.288;2023-07-29T04:44:45;5.95;;;4.40;;
6422;SDS011;3244;42.708;23.288;2023-07-29T04:47:11;6.18;;;4.95;;
6422;SDS011;3244;42.708;23.288;2023-07-29T04:49:38;4.65;;;4.25;;
6422;SDS011;3244;42.708;23.288;2023-07-29T04:52:05;7.97;;;4.57;;
6422;SDS011;3244;42.708;23.288;2023-07-29T04:54:32;4.82;;;4.43;;
6422;SDS011;3244;42.708;23.288;2023-07-29T04:56:58;6.32;;;4.53;;
6422;SDS011;3244;42.708;23.288;2023-07-29T04:59:24;4.90;;;4.38;;
6422;SDS011;3244;42.708;23.288;2023-07-29T05:01:51;4.75;;;4.40;;
6422;SDS011;3244;42.708;23.288;2023-07-29T05:04:17;9.65;;;4.70;;
6422;SDS011;3244;42.708;23.288;2023-07-29T05:06:45;4.25;;;3.88;;
6422;SDS011;3244;42.708;23.288;2023-07-29T05:09:12;4.63;;;4.20;;
6422;SDS011;3244;42.708;23.288;2023-07-29T05:11:38;5.18;;;4.68;;
6422;SDS011;3244;42.708;23.288;2023-07-29T05:14:06;5.20;;;4.70;;
6422;SDS011;3244;42.708;23.288;2023-07-29T05:16:34;5.05;;;4.00;;
6422;SDS011;3244;42.708;23.288;2023-07-29T05:19:00;4.43;;;4.10;;
6422;SDS011;3244;42.708;23.288;2023-07-29T05:21:26;4.32;;;4.03;;
6422;SDS011;3244;42.708;23.288;2023-07-29T05:23:54;6.20;;;4.13;;
6422;SDS011;3244;42.708;23.288;2023-07-29T05:26:21;7.05;;;4.38;;
6422;SDS011;3244;42.708;23.288;2023-07-29T05:28:47;4.32;;;3.97;;
6422;SDS011;3244;42.708;23.288;2023-07-29T05:31:14;4.88;;;4.40;;
6422;SDS011;3244;42.708;23.288;2023-07-29T05:33:40;6.05;;;4.85;;
6422;SDS011;3244;42.708;23.288;2023-07-29T05:36:07;4.57;;;4.18;;
6422;SDS011;3244;42.708;23.288;2023-07-29T05:38:33;4.40;;;4.10;;
6422;SDS011;3244;42.708;23.288;2023-07-29T05:41:01;4.28;;;3.97;;
6422;SDS011;3244;42.708;23.288;2023-07-29T05:43:27;4.18;;;3.75;;
6422;SDS011;3244;42.708;23.288;2023-07-29T05:45:54;4.38;;;4.07;;
6422;SDS011;3244;42.708;23.288;2023-07-29T05:48:20;4.13;;;3.83;;
6422;SDS011;3244;42.708;23.288;2023-07-29T05:50:47;5.00;;;4.60;;
6422;SDS011;3244;42.708;23.288;2023-07-29T05:53:14;8.43;;;4.85;;
6422;SDS011;3244;42.708;23.288;2023-07-29T05:55:40;4.60;;;4.30;;
6422;SDS011;3244;42.708;23.288;2023-07-29T05:58:08;9.48;;;4.57;;
6422;SDS011;3244;42.708;23.288;2023-07-29T06:00:34;6.38;;;3.80;;
6422;SDS011;3244;42.708;23.288;2023-07-29T06:03:01;6.15;;;3.90;;
6422;SDS011;3244;42.708;23.288;2023-07-29T06:05:27;4.72;;;4.22;;
6422;SDS011;3244;42.708;23.288;2023-07-29T06:07:53;5.35;;;3.90;;
6422;SDS011;3244;42.708;23.288;2023-07-29T06:10:20;5.07;;;4.57;;
6422;SDS011;3244;42.708;23.288;2023-07-29T06:12:47;4.32;;;4.00;;
6422;SDS011;3244;42.708;23.288;2023-07-29T06:15:15;4.20;;;3.90;;
6422;SDS011;3244;42.708;23.288;2023-07-29T06:17:42;4.47;;;4.18;;
6422;SDS011;3244;42.708;23.288;2023-07-29T06:20:09;6.05;;;4.20;;
6422;SDS011;3244;42.708;23.288;2023-07-29T06:22:36;4.60;;;4.18;;
6422;SDS011;3244;42.708;23.288;2023-07-29T06:25:03;4.40;;;3.72;;
6422;SDS011;3244;42.708;23.288;2023-07-29T06:27:30;4.68;;;4.28;;
6422;SDS011;3244;42.708;23.288;2023-07-29T06:29:57;4.78;;;4.38;;
6422;SDS011;3244;42.708;23.288;2023-07-29T06:32:25;4.75;;;4.35;;
6422;SDS011;3244;42.708;23.288;2023-07-29T06:34:51;4.53;;;4.22;;
6422;SDS011;3244;42.708;23.288;2023-07-29T06:37:19;4.20;;;4.00;;
6422;SDS011;3244;42.708;23.288;2023-07-29T06:39:46;6.38;;;4.20;;
6422;SDS011;3244;42.708;23.288;2023-07-29T06:42:13;4.85;;;4.55;;
6422;SDS011;3244;42.708;23.288;2023-07-29T06:44:40;5.43;;;5.03;;
6422;SDS011;3244;42.708;23.288;2023-07-29T06:47:07;11.70;;;5.68;;
6422;SDS011;3244;42.708;23.288;2023-07-29T06:49:35;5.97;;;4.35;;
6422;SDS011;3244;42.708;23.288;2023-07-29T06:52:02;10.02;;;5.93;;
6422;SDS011;3244;42.708;23.288;2023-07-29T06:54:28;6.53;;;6.05;;
6422;SDS011;3244;42.708;23.288;2023-07-29T06:56:55;6.05;;;5.25;;
6422;SDS011;3244;42.708;23.288;2023-07-29T06:59:22;5.50;;;4.88;;
6422;SDS011;3244;42.708;23.288;2023-07-29T07:01:49;5.00;;;4.70;;
6422;SDS011;3244;42.708;23.288;2023-07-29T07:04:16;4.88;;;4.47;;
6422;SDS011;3244;42.708;23.288;2023-07-29T07:06:44;9.43;;;4.28;;
6422;SDS011;3244;42.708;23.288;2023-07-29T07:09:11;4.25;;;3.95;;
6422;SDS011;3244;42.708;23.288;2023-07-29T07:11:37;7.00;;;4.70;;
6422;SDS011;3244;42.708;23.288;2023-07-29T07:14:04;4.60;;;3.95;;
6422;SDS011;3244;42.708;23.288;2023-07-29T07:16:31;6.40;;;4.90;;
6422;SDS011;3244;42.708;23.288;2023-07-29T07:18:57;4.97;;;4.53;;
6422;SDS011;3244;42.708;23.288;2023-07-29T07:21:24;8.07;;;4.25;;
6422;SDS011;3244;42.708;23.288;2023-07-29T07:23:52;4.47;;;4.18;;
6422;SDS011;3244;42.708;23.288;2023-07-29T07:26:18;4.57;;;4.18;;
6422;SDS011;3244;42.708;23.288;2023-07-29T07:28:45;4.68;;;4.28;;
6422;SDS011;3244;42.708;23.288;2023-07-29T07:31:12;5.72;;;4.03;;
6422;SDS011;3244;42.708;23.288;2023-07-29T07:33:38;9.57;;;3.95;;
6422;SDS011;3244;42.708;23.288;2023-07-29T07:36:05;3.60;;;3.33;;
6422;SDS011;3244;42.708;23.288;2023-07-29T07:38:32;4.10;;;3.75;;
6422;SDS011;3244;42.708;23.288;2023-07-29T07:41:00;4.30;;;3.90;;
6422;SDS011;3244;42.708;23.288;2023-07-29T07:43:26;4.60;;;3.88;;
6422;SDS011;3244;42.708;23.288;2023-07-29T07:45:57;4.78;;;4.00;;
6422;SDS011;3244;42.708;23.288;2023-07-29T07:48:25;6.28;;;4.00;;
6422;SDS011;3244;42.708;23.288;2023-07-29T07:50:51;8.00;;;4.10;;
6422;SDS011;3244;42.708;23.288;2023-07-29T07:53:18;9.55;;;4.72;;
6422;SDS011;3244;42.708;23.288;2023-07-29T07:55:45;4.50;;;4.13;;
6422;SDS011;3244;42.708;23.288;2023-07-29T07:58:13;4.47;;;4.05;;
6422;SDS011;3244;42.708;23.288;2023-07-29T08:00:40;5.28;;;4.00;;
6422;SDS011;3244;42.708;23.288;2023-07-29T08:03:06;4.20;;;3.90;;
6422;SDS011;3244;42.708;23.288;2023-07-29T08:05:33;3.92;;;3.60;;
6422;SDS011;3244;42.708;23.288;2023-07-29T08:08:00;4.55;;;4.15;;
6422;SDS011;3244;42.708;23.288;2023-07-29T08:10:26;9.52;;;3.65;;
6422;SDS011;3244;42.708;23.288;2023-07-29T08:12:53;4.75;;;3.85;;
6422;SDS011;3244;42.708;23.288;2023-07-29T08:15:21;4.07;;;3.88;;
6422;SDS011;3244;42.708;23.288;2023-07-29T08:17:48;4.97;;;4.03;;
6422;SDS011;3244;42.708;23.288;2023-07-29T08:20:14;4.57;;;3.78;;
6422;SDS011;3244;42.708;23.288;2023-07-29T08:22:41;4.10;;;3.80;;
6422;SDS011;3244;42.708;23.288;2023-07-29T08:25:07;4.47;;;3.50;;
6422;SDS011;3244;42.708;23.288;2023-07-29T08:27:34;4.90;;;3.78;;
6422;SDS011;3244;42.708;23.288;2023-07-29T08:30:01;5.18;;;3.55;;
6422;SDS011;3244;42.708;23.288;2023-07-29T08:32:29;3.55;;;3.35;;
6422;SDS011;3244;42.708;23.288;2023-07-29T08:34:56;5.05;;;3.35;;
6422;SDS011;3244;42.708;23.288;2023-07-29T08:37:22;3.83;;;3.10;;
6422;SDS011;3244;42.708;23.288;2023-07-29T08:39:49;2.85;;;2.65;;
6422;SDS011;3244;42.708;23.288;2023-07-29T08:42:18;2.55;;;2.35;;
6422;SDS011;3244;42.708;23.288;2023-07-29T08:44:46;3.10;;;2.90;;
6422;SDS011;3244;42.708;23.288;2023-07-29T08:47:15;4.50;;;2.95;;
6422;SDS011;3244;42.708;23.288;2023-07-29T08:49:44;4.45;;;2.95;;
6422;SDS011;3244;42.708;23.288;2023-07-29T08:52:12;3.67;;;2.72;;
6422;SDS011;3244;42.708;23.288;2023-07-29T08:54:40;5.82;;;5.38;;
6422;SDS011;3244;42.708;23.288;2023-07-29T08:57:06;4.20;;;3.22;;
6422;SDS011;3244;42.708;23.288;2023-07-29T08:59:33;7.97;;;3.65;;
6422;SDS011;3244;42.708;23.288;2023-07-29T09:02:00;3.33;;;2.88;;
6422;SDS011;3244;42.708;23.288;2023-07-29T09:04:27;2.30;;;2.20;;
6422;SDS011;3244;42.708;23.288;2023-07-29T09:06:55;3.22;;;1.98;;
6422;SDS011;3244;42.708;23.288;2023-07-29T09:09:22;2.15;;;2.05;;
6422;SDS011;3244;42.708;23.288;2023-07-29T09:11:49;1.98;;;1.80;;
6422;SDS011;3244;42.708;23.288;2023-07-29T09:14:16;2.28;;;1.70;;
6422;SDS011;3244;42.708;23.288;2023-07-29T09:16:43;2.92;;;2.28;;
6422;SDS011;3244;42.708;23.288;2023-07-29T09:19:10;2.75;;;2.55;;
6422;SDS011;3244;42.708;23.288;2023-07-29T09:21:38;5.47;;;2.90;;
6422;SDS011;3244;42.708;23.288;2023-07-29T09:24:07;2.97;;;2.78;;
6422;SDS011;3244;42.708;23.288;2023-07-29T09:26:35;1.88;;;1.77;;
6422;SDS011;3244;42.708;23.288;2023-07-29T09:29:02;2.25;;;1.80;;
6422;SDS011;3244;42.708;23.288;2023-07-29T09:31:29;3.22;;;2.00;;
6422;SDS011;3244;42.708;23.288;2023-07-29T09:33:56;2.28;;;2.10;;
6422;SDS011;3244;42.708;23.288;2023-07-29T09:36:24;2.00;;;1.90;;
6422;SDS011;3244;42.708;23.288;2023-07-29T09:38:54;2.65;;;2.17;;
6422;SDS011;3244;42.708;23.288;2023-07-29T09:41:23;3.20;;;1.83;;
6422;SDS011;3244;42.708;23.288;2023-07-29T09:44:00;2.58;;;2.38;;
6422;SDS011;3244;42.708;23.288;2023-07-29T09:46:31;2.40;;;2.20;;
6422;SDS011;3244;42.708;23.288;2023-07-29T09:48:58;6.22;;;5.53;;
6422;SDS011;3244;42.708;23.288;2023-07-29T09:51:25;3.78;;;2.55;;
6422;SDS011;3244;42.708;23.288;2023-07-29T09:53:51;3.00;;;2.80;;
6422;SDS011;3244;42.708;23.288;2023-07-29T09:56:18;3.78;;;1.90;;
6422;SDS011;3244;42.708;23.288;2023-07-29T09:58:51;1.92;;;1.80;;
6422;SDS011;3244;42.708;23.288;2023-07-29T10:01:17;3.05;;;2.05;;
6422;SDS011;3244;42.708;23.288;2023-07-29T10:03:44;2.03;;;1.52;;
6422;SDS011;3244;42.708;23.288;2023-07-29T10:06:11;2.70;;;2.03;;
6422;SDS011;3244;42.708;23.288;2023-07-29T10:08:37;2.20;;;1.98;;
6422;SDS011;3244;42.708;23.288;2023-07-29T10:11:05;1.88;;;1.77;;
6422;SDS011;3244;42.708;23.288;2023-07-29T10:13:33;2.55;;;2.45;;
6422;SDS011;3244;42.708;23.288;2023-07-29T10:16:01;4.32;;;2.08;;
6422;SDS011;3244;42.708;23.288;2023-07-29T10:18:29;2.00;;;1.90;;
6422;SDS011;3244;42.708;23.288;2023-07-29T10:20:56;2.60;;;2.05;;
6422;SDS011;3244;42.708;23.288;2023-07-29T10:23:23;2.20;;;1.58;;
6422;SDS011;3244;42.708;23.288;2023-07-29T10:25:53;8.80;;;2.65;;
6422;SDS011;3244;42.708;23.288;2023-07-29T10:28:21;2.35;;;1.90;;
6422;SDS011;3244;42.708;23.288;2023-07-29T10:30:51;4.65;;;1.70;;
6422;SDS011;3244;42.708;23.288;2023-07-29T10:33:19;2.47;;;2.28;;
6422;SDS011;3244;42.708;23.288;2023-07-29T10:35:46;2.78;;;2.50;;
6422;SDS011;3244;42.708;23.288;2023-07-29T10:38:12;2.15;;;2.05;;
6422;SDS011;3244;42.708;23.288;2023-07-29T10:40:46;4.22;;;2.60;;
6422;SDS011;3244;42.708;23.288;2023-07-29T10:43:15;2.80;;;2.33;;
6422;SDS011;3244;42.708;23.288;2023-07-29T10:45:44;2.70;;;2.50;;
6422;SDS011;3244;42.708;23.288;2023-07-29T10:48:11;3.10;;;2.50;;
6422;SDS011;3244;42.708;23.288;2023-07-29T10:50:39;2.78;;;1.63;;
6422;SDS011;3244;42.708;23.288;2023-07-29T10:53:05;5.75;;;3.45;;
6422;SDS011;3244;42.708;23.288;2023-07-29T10:55:32;4.13;;;3.17;;
6422;SDS011;3244;42.708;23.288;2023-07-29T10:58:09;2.47;;;2.00;;
6422;SDS011;3244;42.708;23.288;2023-07-29T11:00:35;5.65;;;3.20;;
6422;SDS011;3244;42.708;23.288;2023-07-29T11:03:02;2.25;;;2.13;;
6422;SDS011;3244;42.708;23.288;2023-07-29T11:08:18;4.72;;;3.58;;
6422;SDS011;3244;42.708;23.288;2023-07-29T11:10:51;12.20;;;5.68;;
6422;SDS011;3244;42.708;23.288;2023-07-29T11:13:23;6.25;;;4.43;;
6422;SDS011;3244;42.708;23.288;2023-07-29T11:15:52;6.95;;;3.55;;
6422;SDS011;3244;42.708;23.288;2023-07-29T11:18:19;8.23;;;4.00;;
6422;SDS011;3244;42.708;23.288;2023-07-29T11:20:46;15.75;;;6.32;;
6422;SDS011;3244;42.708;23.288;2023-07-29T11:23:13;12.18;;;3.47;;
6422;SDS011;3244;42.708;23.288;2023-07-29T11:25:41;18.02;;;4.45;;
6422;SDS011;3244;42.708;23.288;2023-07-29T11:28:08;8.50;;;3.17;;
6422;SDS011;3244;42.708;23.288;2023-07-29T11:30:34;14.07;;;3.70;;
6422;SDS011;3244;42.708;23.288;2023-07-29T11:33:04;7.72;;;3.15;;
6422;SDS011;3244;42.708;23.288;2023-07-29T11:35:31;4.90;;;2.97;;
6422;SDS011;3244;42.708;23.288;2023-07-29T11:37:58;6.40;;;3.15;;
6422;SDS011;3244;42.708;23.288;2023-07-29T11:40:24;16.73;;;5.85;;
6422;SDS011;3244;42.708;23.288;2023-07-29T11:42:52;4.88;;;2.20;;
6422;SDS011;3244;42.708;23.288;2023-07-29T11:45:19;15.20;;;4.40;;
6422;SDS011;3244;42.708;23.288;2023-07-29T11:47:46;6.75;;;1.92;;
6422;SDS011;3244;42.708;23.288;2023-07-29T11:50:13;12.38;;;3.28;;
6422;SDS011;3244;42.708;23.288;2023-07-29T11:52:40;5.75;;;2.92;;
6422;SDS011;3244;42.708;23.288;2023-07-29T11:55:07;1.50;;;1.40;;
6422;SDS011;3244;42.708;23.288;2023-07-29T11:57:34;8.82;;;2.92;;
6422;SDS011;3244;42.708;23.288;2023-07-29T12:00:03;2.72;;;2.10;;
6422;SDS011;3244;42.708;23.288;2023-07-29T12:02:30;6.60;;;2.45;;
6422;SDS011;3244;42.708;23.288;2023-07-29T12:04:57;5.85;;;2.72;;
6422;SDS011;3244;42.708;23.288;2023-07-29T12:07:23;4.75;;;2.53;;
6422;SDS011;3244;42.708;23.288;2023-07-29T12:09:50;3.20;;;1.83;;
6422;SDS011;3244;42.708;23.288;2023-07-29T12:12:16;1.90;;;1.80;;
6422;SDS011;3244;42.708;23.288;2023-07-29T12:14:44;1.52;;;1.42;;
6422;SDS011;3244;42.708;23.288;2023-07-29T12:17:12;10.55;;;3.22;;
6422;SDS011;3244;42.708;23.288;2023-07-29T12:19:39;1.40;;;1.30;;
6422;SDS011;3244;42.708;23.288;2023-07-29T12:22:06;2.15;;;2.05;;
6422;SDS011;3244;42.708;23.288;2023-07-29T12:24:34;2.60;;;2.40;;
6422;SDS011;3244;42.708;23.288;2023-07-29T12:27:01;2.20;;;2.08;;
6422;SDS011;3244;42.708;23.288;2023-07-29T12:29:27;1.67;;;1.58;;
6422;SDS011;3244;42.708;23.288;2023-07-29T12:31:57;2.65;;;2.45;;
6422;SDS011;3244;42.708;23.288;2023-07-29T12:34:25;5.53;;;2.30;;
6422;SDS011;3244;42.708;23.288;2023-07-29T12:36:52;1.70;;;1.60;;
6422;SDS011;3244;42.708;23.288;2023-07-29T12:39:19;5.70;;;2.00;;
6422;SDS011;3244;42.708;23.288;2023-07-29T12:41:46;5.13;;;2.47;;
6422;SDS011;3244;42.708;23.288;2023-07-29T12:44:13;5.30;;;2.00;;
6422;SDS011;3244;42.708;23.288;2023-07-29T12:46:39;9.88;;;2.83;;
6422;SDS011;3244;42.708;23.288;2023-07-29T12:49:06;4.03;;;2.47;;
6422;SDS011;3244;42.708;23.288;2023-07-29T12:51:34;2.17;;;1.75;;
6422;SDS011;3244;42.708;23.288;2023-07-29T12:54:01;2.35;;;1.73;;
6422;SDS011;3244;42.708;23.288;2023-07-29T12:56:28;2.55;;;1.92;;
6422;SDS011;3244;42.708;23.288;2023-07-29T12:58:54;1.65;;;1.55;;
6422;SDS011;3244;42.708;23.288;2023-07-29T13:01:21;2.80;;;1.90;;
6422;SDS011;3244;42.708;23.288;2023-07-29T13:03:48;2.90;;;2.15;;
6422;SDS011;3244;42.708;23.288;2023-07-29T13:06:14;6.13;;;1.77;;
6422;SDS011;3244;42.708;23.288;2023-07-29T13:08:43;3.35;;;2.20;;
6422;SDS011;3244;42.708;23.288;2023-07-29T13:11:10;1.67;;;1.58;;
6422;SDS011;3244;42.708;23.288;2023-07-29T13:13:36;1.90;;;1.20;;
6422;SDS011;3244;42.708;23.288;2023-07-29T13:16:03;1.75;;;1.65;;
6422;SDS011;3244;42.708;23.288;2023-07-29T13:18:29;1.67;;;1.50;;
6422;SDS011;3244;42.708;23.288;2023-07-29T13:20:56;1.60;;;1.50;;
6422;SDS011;3244;42.708;23.288;2023-07-29T13:23:22;2.22;;;1.83;;
6422;SDS011;3244;42.708;23.288;2023-07-29T13:25:50;2.08;;;1.92;;
6422;SDS011;3244;42.708;23.288;2023-07-29T13:28:17;1.52;;;1.38;;
6422;SDS011;3244;42.708;23.288;2023-07-29T13:30:44;1.63;;;1.58;;
6422;SDS011;3244;42.708;23.288;2023-07-29T13:33:10;1.83;;;1.60;;
6422;SDS011;3244;42.708;23.288;2023-07-29T13:35:37;2.28;;;1.48;;
6422;SDS011;3244;42.708;23.288;2023-07-29T13:38:03;1.90;;;1.77;;
6422;SDS011;3244;42.708;23.288;2023-07-29T13:40:30;2.45;;;1.65;;
6422;SDS011;3244;42.708;23.288;2023-07-29T13:42:57;1.92;;;1.83;;
6422;SDS011;3244;42.708;23.288;2023-07-29T13:45:24;2.17;;;2.08;;
6422;SDS011;3244;42.708;23.288;2023-07-29T13:47:50;1.90;;;1.70;;
6422;SDS011;3244;42.708;23.288;2023-07-29T13:50:17;2.40;;;1.48;;
6422;SDS011;3244;42.708;23.288;2023-07-29T13:52:44;3.08;;;1.70;;
6422;SDS011;3244;42.708;23.288;2023-07-29T13:55:10;2.30;;;1.85;;
6422;SDS011;3244;42.708;23.288;2023-07-29T13:57:37;5.78;;;1.70;;
6422;SDS011;3244;42.708;23.288;2023-07-29T14:00:05;3.13;;;1.60;;
6422;SDS011;3244;42.708;23.288;2023-07-29T14:02:32;2.17;;;1.90;;
6422;SDS011;3244;42.708;23.288;2023-07-29T14:04:58;1.40;;;1.40;;
6422;SDS011;3244;42.708;23.288;2023-07-29T14:07:25;1.90;;;1.80;;
6422;SDS011;3244;42.708;23.288;2023-07-29T14:09:51;1.90;;;1.80;;
6422;SDS011;3244;42.708;23.288;2023-07-29T14:12:18;2.55;;;2.38;;
6422;SDS011;3244;42.708;23.288;2023-07-29T14:14:44;1.75;;;1.58;;
6422;SDS011;3244;42.708;23.288;2023-07-29T14:17:12;2.53;;;1.77;;
6422;SDS011;3244;42.708;23.288;2023-07-29T14:19:38;1.85;;;1.75;;
6422;SDS011;3244;42.708;23.288;2023-07-29T14:22:05;2.13;;;2.03;;
6422;SDS011;3244;42.708;23.288;2023-07-29T14:24:32;3.05;;;2.10;;
6422;SDS011;3244;42.708;23.288;2023-07-29T14:26:58;2.45;;;1.80;;
6422;SDS011;3244;42.708;23.288;2023-07-29T14:29:25;7.55;;;2.00;;
6422;SDS011;3244;42.708;23.288;2023-07-29T14:31:51;2.53;;;1.58;;
6422;SDS011;3244;42.708;23.288;2023-07-29T14:34:19;1.80;;;1.70;;
6422;SDS011;3244;42.708;23.288;2023-07-29T14:36:46;1.83;;;1.73;;
6422;SDS011;3244;42.708;23.288;2023-07-29T14:39:12;2.70;;;1.58;;
6422;SDS011;3244;42.708;23.288;2023-07-29T14:41:38;1.92;;;1.70;;
6422;SDS011;3244;42.708;23.288;2023-07-29T14:44:05;5.47;;;1.70;;
6422;SDS011;3244;42.708;23.288;2023-07-29T14:46:32;1.80;;;1.70;;
6422;SDS011;3244;42.708;23.288;2023-07-29T14:48:58;3.25;;;1.45;;
6422;SDS011;3244;42.708;23.288;2023-07-29T14:51:26;1.80;;;1.70;;
6422;SDS011;3244;42.708;23.288;2023-07-29T14:53:52;1.95;;;1.77;;
6422;SDS011;3244;42.708;23.288;2023-07-29T14:56:19;2.45;;;1.92;;
6422;SDS011;3244;42.708;23.288;2023-07-29T14:58:45;1.90;;;1.80;;
6422;SDS011;3244;42.708;23.288;2023-07-29T15:01:11;1.90;;;1.80;;